Accueil
METAR-TAF:

METAR-TAF

Aéroports :

Montichiari

Brescia, Italie

latitude: 45-24-02N, longitude: 010-18-59E, altitude: 104 m

Observation

Le bulletin a été fait il y a 32 minutes, à 07:20 UTC
Vent 9 kt de nord-est
Température 23°C
Humidité 65%
Pression 1015 hPa
Visibilité 10 km ou plus

METAR: LIPO 030720Z AUTO 04009KT 9999 FEW063/// 23/16 Q1015

Heure: 09:52 (07:52 UTC)

Prévision

Le bulletin a été fait il y a 2 heures et 52 minutes, à 05:00 UTC
Prévision valable du 03 à 06 UTC au 04 à 06 UTC
Vent 5 kt de direction variable
Visibilité 10 km ou plus
Quelques nuages à une hauteur de 4000 ft
Probabilité 40%
du 03 à 14 UTC au 03 à 19 UTC
Visibilité: 4000 m
orage, pluie

TAF: LIPO 030500Z 0306/0406 VRB05KT 9999 FEW040 PROB40 0314/0319 4000 TSRA

Observations et prévisions météorologiques de plus de 4000 aéroports (messages METAR et TAF).

Les stations disponibles sont représentées par des disques jaunes et rouges sur la carte.

Passer la souris dessus pour voir le nom de la station.

Cliquer dessus pour voir les observations et prévisions météorologiques.

Pour changer de carte: cliquez sur les boutons verts avec une croix noire pour zoomer, sur le bouton vert avec un tiret pour effectuer un zoom arrière, ou sur les flèches vertes pour les cartes adjacentes.


METAR-TAF: